createdAt,value
2022-11-04T00:00:23.001Z,99875.63
2022-11-04T00:01:58.464Z,99877.34
2022-11-04T00:03:31.280Z,99874.78
2022-11-04T00:05:03.104Z,99886.41
2022-11-04T00:06:35.514Z,99883.09
2022-11-04T00:08:23.724Z,99877.09
2022-11-04T00:09:55.342Z,99883.09
2022-11-04T00:11:47.552Z,99889.41
2022-11-04T00:13:19.213Z,99874.63
2022-11-04T00:14:50.848Z,99882.75
2022-11-04T00:16:41.410Z,99883.69
2022-11-04T00:18:13.021Z,99890.72
2022-11-04T00:20:03.792Z,99887.41
2022-11-04T00:21:54.096Z,99892.75
2022-11-04T00:23:44.421Z,99902.00
2022-11-04T00:25:35.010Z,99910.22
2022-11-04T00:27:27.667Z,99899.53
2022-11-04T00:28:59.288Z,99905.66
2022-11-04T00:30:30.894Z,99914.31
2022-11-04T00:32:21.333Z,99919.50
2022-11-04T00:33:55.082Z,99920.34
2022-11-04T00:35:26.718Z,99919.66
2022-11-04T00:36:59.689Z,99918.72
2022-11-04T00:38:31.318Z,99928.56
2022-11-04T00:40:03.408Z,99928.56
2022-11-04T00:41:35.023Z,99924.22
2022-11-04T00:43:08.005Z,99914.53
2022-11-04T00:44:39.633Z,99926.97
2022-11-04T00:46:11.781Z,99927.34
2022-11-04T00:47:43.386Z,99928.34
2022-11-04T00:49:15.028Z,99931.75
2022-11-04T00:50:46.761Z,99930.84
2022-11-04T00:52:18.471Z,99937.09
2022-11-04T00:53:50.835Z,99946.19
2022-11-04T00:55:22.513Z,99941.94
2022-11-04T00:56:54.130Z,99951.44
2022-11-04T00:58:28.447Z,99957.56
2022-11-04T01:00:00.047Z,99948.03
2022-11-04T01:01:31.833Z,99944.63
2022-11-04T01:03:03.555Z,99943.84
2022-11-04T01:04:35.224Z,99944.72
2022-11-04T01:06:06.946Z,99940.16
2022-11-04T01:07:43.494Z,99951.53
2022-11-04T01:09:15.469Z,99950.59
2022-11-04T01:10:47.271Z,99964.59
2022-11-04T01:12:18.885Z,99962.66
2022-11-04T01:13:52.360Z,99963.28
2022-11-04T01:15:24.001Z,99967.47
2022-11-04T01:16:55.770Z,99972.56
2022-11-04T01:18:27.782Z,99973.25
2022-11-04T01:20:00.234Z,99976.56
2022-11-04T01:21:32.408Z,99992.44
2022-11-04T01:23:04.021Z,99987.66
2022-11-04T01:24:35.623Z,99982.69
2022-11-04T01:26:08.239Z,99984.69
2022-11-04T01:27:40.074Z,99982.31
2022-11-04T01:29:13.099Z,99998.97
2022-11-04T01:30:44.740Z,100000.81
2022-11-04T01:32:16.388Z,100005.22
2022-11-04T01:33:48.583Z,100001.81
2022-11-04T01:35:21.490Z,100001.91
2022-11-04T01:36:53.096Z,99994.06
2022-11-04T01:38:24.780Z,99995.94
2022-11-04T01:39:56.455Z,99996.19
2022-11-04T01:41:30.151Z,99998.97
2022-11-04T01:43:01.813Z,99998.19
2022-11-04T01:44:56.558Z,100004.38
2022-11-04T01:46:33.917Z,100002.50
2022-11-04T01:48:11.211Z,100001.81
2022-11-04T01:49:46.748Z,99997.41
2022-11-04T01:51:19.351Z,99995.81
2022-11-04T01:52:57.060Z,99999.53
2022-11-04T01:54:29.742Z,99997.75
2022-11-04T01:56:11.842Z,100005.72
2022-11-04T01:57:48.533Z,100007.44
2022-11-04T01:59:24.398Z,100007.56
2022-11-04T02:00:57.514Z,100007.72
2022-11-04T02:02:29.637Z,100027.03
2022-11-04T02:04:20.167Z,100018.31
2022-11-04T02:05:53.886Z,100025.50
2022-11-04T02:07:25.853Z,100021.06
2022-11-04T02:08:57.565Z,100034.31
2022-11-04T02:10:30.953Z,100023.94
2022-11-04T02:12:21.643Z,100036.97
2022-11-04T02:13:53.361Z,100032.69
2022-11-04T02:15:36.289Z,100028.50
2022-11-04T02:17:24.430Z,100036.59
2022-11-04T02:19:13.628Z,100033.28
2022-11-04T02:21:11.444Z,100022.97
2022-11-04T02:23:05.587Z,100026.53
2022-11-04T02:25:06.216Z,100015.38
2022-11-04T02:27:12.646Z,100018.00
2022-11-04T02:29:16.358Z,100017.22
2022-11-04T02:30:52.779Z,100013.91
2022-11-04T02:32:34.896Z,100015.81
2022-11-04T02:34:14.213Z,100008.91
2022-11-04T02:35:55.575Z,100005.50
2022-11-04T02:37:37.409Z,100015.94
2022-11-04T02:39:20.174Z,100011.63
2022-11-04T02:41:05.517Z,100016.03
2022-11-04T02:42:45.196Z,100011.75
2022-11-04T02:44:23.228Z,100010.91
2022-11-04T02:46:02.967Z,100010.84
2022-11-04T02:47:39.450Z,100009.06
2022-11-04T02:49:15.676Z,100015.22
2022-11-04T02:50:51.565Z,100011.75
2022-11-04T02:52:30.160Z,100018.72
2022-11-04T02:54:08.225Z,100011.75
2022-11-04T02:55:44.355Z,100011.75
2022-11-04T02:57:21.883Z,100010.16
2022-11-04T02:58:57.999Z,100013.63
2022-11-04T03:00:32.037Z,100011.75
2022-11-04T03:02:07.179Z,100007.28
2022-11-04T03:03:45.612Z,100013.47
2022-11-04T03:05:21.251Z,100009.06
2022-11-04T03:06:55.301Z,100004.66
2022-11-04T03:08:31.511Z,100004.66
2022-11-04T03:10:08.721Z,100013.47
2022-11-04T03:11:45.638Z,100010.03
2022-11-04T03:13:22.485Z,100013.47
2022-11-04T03:15:01.126Z,100009.13
2022-11-04T03:16:38.418Z,100003.94
2022-11-04T03:18:24.067Z,100011.06
2022-11-04T03:19:58.412Z,100002.41
2022-11-04T03:21:36.938Z,100008.50
2022-11-04T03:23:11.015Z,100012.91
2022-11-04T03:24:45.803Z,100014.63
2022-11-04T03:26:23.839Z,100010.22
2022-11-04T03:28:04.211Z,100014.56
2022-11-04T03:29:40.513Z,100011.00
2022-11-04T03:31:19.968Z,100016.16
2022-11-04T03:32:59.736Z,100008.28
2022-11-04T03:34:31.805Z,100010.84
2022-11-04T03:36:04.374Z,100012.53
2022-11-04T03:37:36.225Z,100009.91
2022-11-04T03:39:08.388Z,100009.97
2022-11-04T03:40:40.969Z,100013.47
2022-11-04T03:42:20.905Z,100013.47
2022-11-04T03:43:52.642Z,100011.81
2022-11-04T03:45:24.450Z,100013.47
2022-11-04T03:46:56.198Z,100017.72
2022-11-04T03:48:29.936Z,100018.59
2022-11-04T03:50:07.197Z,100015.03
2022-11-04T03:51:41.538Z,100021.94
2022-11-04T03:53:16.681Z,100013.97
2022-11-04T03:54:48.552Z,100030.53
2022-11-04T03:56:44.108Z,100024.34
2022-11-04T03:58:27.776Z,100022.56
2022-11-04T04:00:07.123Z,100026.97
2022-11-04T04:01:49.530Z,100032.22
2022-11-04T04:03:27.796Z,100029.66
2022-11-04T04:05:05.608Z,100034.84
2022-11-04T04:06:38.006Z,100022.56
2022-11-04T04:08:18.239Z,100022.47
2022-11-04T04:09:56.091Z,100020.69
2022-11-04T04:11:34.425Z,100021.63
2022-11-04T04:13:14.779Z,100019.94
2022-11-04T04:14:51.630Z,100013.06
2022-11-04T04:16:31.056Z,100011.47
2022-11-04T04:18:07.741Z,100012.53
2022-11-04T04:19:43.057Z,100017.06
2022-11-04T04:21:20.307Z,100013.63
2022-11-04T04:22:56.343Z,100019.63
2022-11-04T04:24:52.292Z,100026.53
2022-11-04T04:26:43.671Z,100029.81
2022-11-04T04:28:18.457Z,100027.97
2022-11-04T04:29:52.127Z,100033.09
2022-11-04T04:31:44.390Z,100038.19
2022-11-04T04:33:18.467Z,100034.41
2022-11-04T04:34:50.357Z,100039.59
2022-11-04T04:36:23.588Z,100043.03
2022-11-04T04:38:21.307Z,100035.81
2022-11-04T04:40:26.422Z,100039.16
2022-11-04T04:42:17.204Z,100038.38
2022-11-04T04:44:07.759Z,100036.59
2022-11-04T04:45:43.535Z,100041.00
2022-11-04T04:47:22.250Z,100040.16
2022-11-04T04:48:53.879Z,100032.25
2022-11-04T04:50:28.747Z,100042.94
2022-11-04T04:52:03.473Z,100044.00
2022-11-04T04:53:35.146Z,100041.53
2022-11-04T04:55:08.241Z,100040.59
2022-11-04T04:56:39.945Z,100044.94
2022-11-04T04:58:11.601Z,100048.28
2022-11-04T04:59:43.242Z,100053.47
2022-11-04T05:01:15.014Z,100047.28
2022-11-04T05:02:48.383Z,100047.28
2022-11-04T05:04:20.046Z,100049.13
2022-11-04T05:05:53.691Z,100043.09
2022-11-04T05:07:29.679Z,100046.63
2022-11-04T05:09:01.318Z,100044.28
2022-11-04T05:10:33.194Z,100040.13
2022-11-04T05:12:05.312Z,100037.63
2022-11-04T05:13:37.157Z,100041.19
2022-11-04T05:15:09.525Z,100037.75
2022-11-04T05:16:41.206Z,100049.19
2022-11-04T05:18:12.837Z,100055.38
2022-11-04T05:19:44.442Z,100052.88
2022-11-04T05:21:16.520Z,100052.09
2022-11-04T05:22:49.501Z,100046.09
2022-11-04T05:24:21.127Z,100047.88
2022-11-04T05:25:52.719Z,100050.56
2022-11-04T05:27:24.341Z,100048.72
2022-11-04T05:28:55.934Z,100049.56
2022-11-04T05:30:27.926Z,100052.09
2022-11-04T05:31:59.629Z,100052.19
2022-11-04T05:33:31.975Z,100059.22
2022-11-04T05:35:03.991Z,100050.56
2022-11-04T05:36:35.606Z,100057.66
2022-11-04T05:38:08.657Z,100057.59
2022-11-04T05:39:40.387Z,100050.56
2022-11-04T05:41:25.505Z,100053.31
2022-11-04T05:42:58.592Z,100054.31
2022-11-04T05:44:30.224Z,100058.78
2022-11-04T05:46:02.260Z,100057.00
2022-11-04T05:47:33.874Z,100061.19
2022-11-04T05:49:05.642Z,100056.72
2022-11-04T05:50:38.309Z,100056.94
2022-11-04T05:52:10.072Z,100051.03
2022-11-04T05:53:43.174Z,100058.06
2022-11-04T05:55:14.879Z,100056.22
2022-11-04T05:56:46.799Z,100063.09
2022-11-04T05:58:18.410Z,100062.19
2022-11-04T05:59:50.083Z,100063.19
2022-11-04T06:01:29.145Z,100059.06
2022-11-04T06:03:00.937Z,100066.28
2022-11-04T06:04:32.940Z,100066.44
2022-11-04T06:06:04.815Z,100063.81
2022-11-04T06:07:36.482Z,100050.66
2022-11-04T06:09:09.811Z,100060.19
2022-11-04T06:10:43.157Z,100057.50
2022-11-04T06:12:16.221Z,100057.44
2022-11-04T06:13:48.150Z,100063.66
2022-11-04T06:15:19.765Z,100075.16
2022-11-04T06:16:51.389Z,100070.81
2022-11-04T06:18:23.025Z,100077.13
2022-11-04T06:19:54.638Z,100077.28
2022-11-04T06:21:30.262Z,100097.59
2022-11-04T06:23:01.863Z,100098.56
2022-11-04T06:24:34.868Z,100093.50
2022-11-04T06:26:06.659Z,100094.34
2022-11-04T06:27:38.298Z,100100.47
2022-11-04T06:29:09.960Z,100094.22
2022-11-04T06:30:41.563Z,100101.31
2022-11-04T06:32:15.632Z,100103.16
2022-11-04T06:33:48.515Z,100105.09
2022-11-04T06:35:20.115Z,100115.53
2022-11-04T06:36:54.328Z,100115.53
2022-11-04T06:38:26.353Z,100117.06
2022-11-04T06:39:59.275Z,100122.19
2022-11-04T06:41:31.165Z,100124.75
2022-11-04T06:43:03.200Z,100125.50
2022-11-04T06:44:35.264Z,100127.91
2022-11-04T06:46:23.287Z,100132.91
2022-11-04T06:47:54.889Z,100127.38
2022-11-04T06:49:26.546Z,100134.19
2022-11-04T06:50:59.235Z,100138.31
2022-11-04T06:52:30.937Z,100139.91
2022-11-04T06:54:02.624Z,100145.03
2022-11-04T06:55:35.627Z,100136.91
2022-11-04T06:57:09.693Z,100135.81
2022-11-04T06:58:41.410Z,100139.28
2022-11-04T07:00:14.072Z,100134.66
2022-11-04T07:01:46.808Z,100138.84
2022-11-04T07:03:18.519Z,100136.94
2022-11-04T07:04:50.411Z,100134.19
2022-11-04T07:06:23.290Z,100127.09
2022-11-04T07:07:55.071Z,100129.53
2022-11-04T07:09:26.689Z,100131.25
2022-11-04T07:10:59.736Z,100137.22
2022-11-04T07:12:31.476Z,100134.41
2022-11-04T07:14:03.121Z,100137.66
2022-11-04T07:15:34.769Z,100140.06
2022-11-04T07:17:06.591Z,100145.13
2022-11-04T07:18:38.291Z,100137.03
2022-11-04T07:20:13.137Z,100148.31
2022-11-04T07:21:44.886Z,100151.78
2022-11-04T07:23:16.519Z,100153.47
2022-11-04T07:24:49.413Z,100146.28
2022-11-04T07:26:22.451Z,100159.38
2022-11-04T07:27:56.664Z,100160.22
2022-11-04T07:29:31.159Z,100151.34
2022-11-04T07:31:05.089Z,100158.13
2022-11-04T07:32:36.712Z,100160.56
2022-11-04T07:34:08.339Z,100166.59
2022-11-04T07:35:39.943Z,100176.94
2022-11-04T07:37:11.554Z,100172.53
2022-11-04T07:38:43.166Z,100179.56
2022-11-04T07:40:14.811Z,100181.34
2022-11-04T07:41:47.838Z,100199.75
2022-11-04T07:43:19.471Z,100184.88
2022-11-04T07:44:51.282Z,100188.44
2022-11-04T07:46:22.888Z,100191.94
2022-11-04T07:47:54.503Z,100193.72
2022-11-04T07:49:26.286Z,100196.28
2022-11-04T07:50:59.727Z,100201.53
2022-11-04T07:52:31.441Z,100207.88
2022-11-04T07:54:03.153Z,100204.38
2022-11-04T07:55:43.092Z,100219.44
2022-11-04T07:57:16.698Z,100218.81
2022-11-04T07:58:48.391Z,100222.50
2022-11-04T08:00:20.334Z,100223.44
2022-11-04T08:01:54.583Z,100228.84
2022-11-04T08:03:26.495Z,100229.69
2022-11-04T08:04:58.207Z,100228.63
2022-11-04T08:06:30.878Z,100229.34
2022-11-04T08:08:02.490Z,100226.50
2022-11-04T08:09:34.177Z,100225.44
2022-11-04T08:11:12.783Z,100225.28
2022-11-04T08:12:48.036Z,100230.56
2022-11-04T08:14:19.703Z,100228.78
2022-11-04T08:15:51.333Z,100231.41
2022-11-04T08:17:22.964Z,100231.34
2022-11-04T08:18:55.318Z,100237.66
2022-11-04T08:20:27.003Z,100234.38
2022-11-04T08:21:58.676Z,100227.34
2022-11-04T08:23:30.821Z,100235.94
2022-11-04T08:25:02.503Z,100236.66
2022-11-04T08:26:34.253Z,100228.63
2022-11-04T08:28:07.571Z,100238.31
2022-11-04T08:29:39.601Z,100228.78
2022-11-04T08:31:14.668Z,100230.25
2022-11-04T08:32:46.398Z,100235.44
2022-11-04T08:34:18.414Z,100227.69
2022-11-04T08:35:50.537Z,100235.69
2022-11-04T08:37:22.132Z,100229.47
2022-11-04T08:38:54.365Z,100233.81
2022-11-04T08:40:26.094Z,100224.19
2022-11-04T08:41:57.791Z,100230.41
2022-11-04T08:43:31.322Z,100225.16
2022-11-04T08:45:03.423Z,100224.00
2022-11-04T08:46:37.599Z,100228.97
2022-11-04T08:48:09.868Z,100236.50
2022-11-04T08:49:41.978Z,100229.25
2022-11-04T08:51:16.158Z,100227.25
2022-11-04T08:52:48.151Z,100229.56
2022-11-04T08:54:19.784Z,100235.63
2022-11-04T08:55:51.424Z,100235.47
2022-11-04T08:57:23.066Z,100235.09
2022-11-04T08:58:58.249Z,100239.38
2022-11-04T09:00:29.962Z,100240.22
2022-11-04T09:02:01.753Z,100240.84
2022-11-04T09:03:34.934Z,100241.72
2022-11-04T09:05:07.219Z,100238.81
2022-11-04T09:06:42.395Z,100249.00
2022-11-04T09:08:15.368Z,100240.81
2022-11-04T09:09:47.160Z,100239.78
2022-11-04T09:11:18.886Z,100250.03
2022-11-04T09:12:50.575Z,100249.03
2022-11-04T09:14:23.808Z,100247.91
2022-11-04T09:15:55.442Z,100253.91
2022-11-04T09:17:27.516Z,100257.88
2022-11-04T09:18:59.664Z,100252.19
2022-11-04T09:20:31.670Z,100251.91
2022-11-04T09:22:03.561Z,100250.59
2022-11-04T09:23:35.405Z,100252.13
2022-11-04T09:25:07.889Z,100251.81
2022-11-04T09:26:39.819Z,100255.06
2022-11-04T09:28:11.766Z,100248.78
2022-11-04T09:29:44.915Z,100250.41
2022-11-04T09:31:19.017Z,100254.69
2022-11-04T09:32:52.879Z,100251.00
2022-11-04T09:34:24.704Z,100257.06
2022-11-04T09:35:57.602Z,100254.41
2022-11-04T09:37:29.302Z,100249.47
2022-11-04T09:39:00.916Z,100239.22
2022-11-04T09:40:35.026Z,100243.81
2022-11-04T09:42:15.818Z,100238.38
2022-11-04T09:43:54.696Z,100235.34
2022-11-04T09:45:31.293Z,100233.00
2022-11-04T09:47:04.007Z,100226.03
2022-11-04T09:48:41.958Z,100234.91
2022-11-04T09:50:21.250Z,100238.66
2022-11-04T09:51:55.854Z,100243.53
2022-11-04T09:53:33.847Z,100231.69
2022-11-04T09:55:13.316Z,100238.16
2022-11-04T09:56:48.584Z,100243.09
2022-11-04T09:58:20.379Z,100246.13
2022-11-04T09:59:52.773Z,100256.41
2022-11-04T10:01:36.980Z,100253.06
2022-11-04T10:03:24.334Z,100251.25
2022-11-04T10:05:07.649Z,100263.94
2022-11-04T10:06:52.509Z,100254.38
2022-11-04T10:08:39.071Z,100252.53
2022-11-04T10:10:19.153Z,100261.34
2022-11-04T10:11:56.587Z,100249.34
2022-11-04T10:13:40.097Z,100247.72
2022-11-04T10:15:32.218Z,100250.00
2022-11-04T10:17:21.795Z,100249.50
2022-11-04T10:19:11.795Z,100245.03
2022-11-04T10:20:51.756Z,100245.50
2022-11-04T10:22:29.235Z,100252.06
2022-11-04T10:24:08.269Z,100261.97
2022-11-04T10:25:47.825Z,100254.31
2022-11-04T10:27:24.180Z,100256.28
2022-11-04T10:29:04.258Z,100260.63
2022-11-04T10:30:36.027Z,100266.00
2022-11-04T10:32:19.474Z,100260.63
2022-11-04T10:33:59.381Z,100260.72
2022-11-04T10:35:35.281Z,100261.47
2022-11-04T10:37:10.578Z,100257.91
2022-11-04T10:38:46.562Z,100262.34
2022-11-04T10:40:25.753Z,100263.28
2022-11-04T10:41:58.230Z,100260.72
2022-11-04T10:43:35.590Z,100268.47
2022-11-04T10:45:11.206Z,100265.63
2022-11-04T10:46:52.035Z,100264.69
2022-11-04T10:48:32.229Z,100274.16
2022-11-04T10:50:28.806Z,100272.88
2022-11-04T10:52:01.612Z,100271.81
2022-11-04T10:53:33.815Z,100269.84
2022-11-04T10:55:18.891Z,100273.09
2022-11-04T10:56:53.157Z,100279.13
2022-11-04T10:58:27.637Z,100283.66
2022-11-04T11:00:01.636Z,100283.56
2022-11-04T11:01:35.202Z,100290.50
2022-11-04T11:03:30.812Z,100293.91
2022-11-04T11:05:15.052Z,100298.22
2022-11-04T11:06:50.611Z,100292.28
2022-11-04T11:08:30.676Z,100303.63
2022-11-04T11:10:03.266Z,100299.75
2022-11-04T11:11:38.221Z,100300.16
2022-11-04T11:13:24.581Z,100301.41
2022-11-04T11:14:56.716Z,100305.47
2022-11-04T11:16:30.347Z,100296.78
2022-11-04T11:18:15.100Z,100298.31
2022-11-04T11:19:54.776Z,100301.59
2022-11-04T11:21:26.435Z,100303.03
2022-11-04T11:23:02.023Z,100303.66
2022-11-04T11:24:36.462Z,100305.91
2022-11-04T11:26:09.637Z,100305.47
2022-11-04T11:27:45.923Z,100310.28
2022-11-04T11:29:22.373Z,100310.94
2022-11-04T11:30:57.912Z,100319.34
2022-11-04T11:32:34.817Z,100320.88
2022-11-04T11:34:15.281Z,100318.03
2022-11-04T11:35:51.779Z,100322.22
2022-11-04T11:37:25.682Z,100324.66
2022-11-04T11:39:03.274Z,100326.25
2022-11-04T11:40:47.633Z,100321.28
2022-11-04T11:42:30.343Z,100327.59
2022-11-04T11:44:06.371Z,100337.63
2022-11-04T11:45:39.808Z,100337.88
2022-11-04T11:47:20.442Z,100342.63
2022-11-04T11:48:54.124Z,100338.72
2022-11-04T11:50:34.964Z,100345.53
2022-11-04T11:52:32.827Z,100341.97
2022-11-04T11:54:17.526Z,100338.19
2022-11-04T11:55:56.693Z,100334.00
2022-11-04T11:57:44.751Z,100335.03
2022-11-04T12:01:25.074Z,100334.03
2022-11-04T12:03:03.798Z,100343.19
2022-11-04T12:10:50.939Z,100351.06
2022-11-04T12:12:39.001Z,100354.31
2022-11-04T12:14:16.971Z,100344.81
2022-11-04T12:16:09.368Z,100345.25
2022-11-04T12:17:53.242Z,100350.03
2022-11-04T12:19:45.428Z,100357.84
2022-11-04T12:21:24.055Z,100352.00
2022-11-04T12:23:05.300Z,100358.53
2022-11-04T12:24:50.522Z,100346.78
2022-11-04T12:26:34.998Z,100348.13
2022-11-04T12:28:22.388Z,100351.63
2022-11-04T12:30:04.788Z,100352.63
2022-11-04T12:31:49.104Z,100358.38
2022-11-04T12:33:32.440Z,100354.19
2022-11-04T12:35:20.549Z,100346.16
2022-11-04T12:37:06.234Z,100347.44
2022-11-04T12:38:55.871Z,100340.44
2022-11-04T12:40:36.184Z,100336.69
2022-11-04T12:42:21.928Z,100347.25
2022-11-04T12:44:03.520Z,100334.84
2022-11-04T12:45:47.731Z,100343.19
2022-11-04T12:47:33.083Z,100340.41
2022-11-04T12:49:24.237Z,100337.63
2022-11-04T12:51:05.182Z,100335.22
2022-11-04T12:53:05.244Z,100343.28
2022-11-04T12:54:46.548Z,100349.81
2022-11-04T12:56:22.149Z,100350.59
2022-11-04T12:58:03.703Z,100348.97
2022-11-04T12:59:54.148Z,100351.44
2022-11-04T13:01:32.794Z,100352.44
2022-11-04T13:03:10.748Z,100347.53
2022-11-04T13:04:50.100Z,100351.84
2022-11-04T13:06:26.091Z,100359.28
2022-11-04T13:08:13.968Z,100352.66
2022-11-04T13:09:50.968Z,100360.41
2022-11-04T13:11:29.530Z,100362.88
2022-11-04T13:13:03.054Z,100353.91
2022-11-04T13:14:42.510Z,100366.66
2022-11-04T13:16:14.189Z,100362.41
2022-11-04T13:17:49.841Z,100371.78
2022-11-04T13:19:26.199Z,100367.06
2022-11-04T13:21:04.206Z,100370.44
2022-11-04T13:22:38.228Z,100379.63
2022-11-04T13:24:17.465Z,100378.09
2022-11-04T13:25:50.414Z,100379.88
2022-11-04T13:27:26.797Z,100384.25
2022-11-04T13:29:08.872Z,100381.38
2022-11-04T13:30:49.806Z,100382.94
2022-11-04T13:32:31.501Z,100373.94
2022-11-04T13:34:16.141Z,100381.88
2022-11-04T13:35:59.656Z,100393.97
2022-11-04T13:37:33.882Z,100389.47
2022-11-04T13:39:11.396Z,100393.84
2022-11-04T13:40:51.840Z,100392.03
2022-11-04T13:42:55.233Z,100405.19
2022-11-04T13:44:29.936Z,100396.44
2022-11-04T13:46:02.209Z,100399.19
2022-11-04T13:47:37.270Z,100398.41
2022-11-04T13:49:20.377Z,100398.22
2022-11-04T13:50:59.140Z,100402.44
2022-11-04T13:52:32.627Z,100398.91
2022-11-04T13:54:05.662Z,100397.50
2022-11-04T13:55:49.112Z,100400.91
2022-11-04T13:57:22.442Z,100402.44
2022-11-04T13:58:59.999Z,100400.88
2022-11-04T14:00:32.579Z,100412.53
2022-11-04T14:02:24.522Z,100407.03
2022-11-04T14:04:05.291Z,100414.84
2022-11-04T14:06:02.196Z,100412.66
2022-11-04T14:08:10.728Z,100421.00
2022-11-04T14:09:54.158Z,100423.97
2022-11-04T14:11:26.416Z,100438.16
2022-11-04T14:13:47.685Z,100433.97
2022-11-04T14:16:00.795Z,100439.69
2022-11-04T14:17:58.213Z,100447.47
2022-11-04T14:20:00.715Z,100450.44
2022-11-04T14:22:07.861Z,100457.78
2022-11-04T14:23:42.051Z,100448.03
2022-11-04T14:25:24.841Z,100455.56
2022-11-04T14:26:56.535Z,100458.53
2022-11-04T14:28:30.042Z,100455.03
2022-11-04T14:30:02.211Z,100460.88
2022-11-04T14:31:36.564Z,100455.91
2022-11-04T14:33:20.588Z,100462.81
2022-11-04T14:34:59.965Z,100464.78
2022-11-04T14:36:34.896Z,100467.19
2022-11-04T14:38:24.394Z,100472.44
2022-11-04T14:39:58.844Z,100468.06
2022-11-04T14:41:49.835Z,100469.88
2022-11-04T14:43:31.957Z,100471.09
2022-11-04T14:45:08.060Z,100481.56
2022-11-04T14:46:43.981Z,100477.66
2022-11-04T14:48:19.335Z,100478.91
2022-11-04T14:49:52.436Z,100483.19
2022-11-04T14:51:27.645Z,100485.75
2022-11-04T14:53:03.600Z,100485.81
2022-11-04T14:54:36.995Z,100486.84
2022-11-04T14:56:23.025Z,100494.84
2022-11-04T14:57:57.343Z,100496.94
2022-11-04T14:59:29.006Z,100490.78
2022-11-04T15:01:02.484Z,100497.78
2022-11-04T15:02:35.844Z,100502.28
2022-11-04T15:04:17.841Z,100502.69
2022-11-04T15:05:52.421Z,100506.81
2022-11-04T15:07:31.896Z,100510.41
2022-11-04T15:09:03.756Z,100515.13
2022-11-04T15:10:36.816Z,100512.63
2022-11-04T15:12:30.971Z,100518.16
2022-11-04T15:14:12.983Z,100516.19
2022-11-04T15:15:45.403Z,100525.47
2022-11-04T15:17:19.707Z,100529.81
2022-11-04T15:18:52.653Z,100528.09
2022-11-04T15:20:25.958Z,100544.41
2022-11-04T15:21:59.369Z,100537.88
2022-11-04T15:23:34.622Z,100539.66
2022-11-04T15:25:11.680Z,100548.44
2022-11-04T15:26:50.407Z,100549.94
2022-11-04T15:28:25.011Z,100549.59
2022-11-04T15:29:59.273Z,100556.31
2022-11-04T15:31:32.876Z,100553.44
2022-11-04T15:33:04.746Z,100553.25
2022-11-04T15:34:36.998Z,100564.53
2022-11-04T15:36:14.200Z,100569.75
2022-11-04T15:37:47.192Z,100567.94
2022-11-04T15:39:22.638Z,100567.81
2022-11-04T15:40:57.159Z,100564.22
2022-11-04T15:42:37.152Z,100563.19
2022-11-04T15:44:15.362Z,100574.09
2022-11-04T15:45:51.771Z,100565.53
2022-11-04T15:47:25.811Z,100578.81
2022-11-04T15:49:06.336Z,100578.88
2022-11-04T15:50:38.526Z,100580.69
2022-11-04T15:52:14.755Z,100585.88
2022-11-04T15:53:50.554Z,100589.56
2022-11-04T15:55:25.894Z,100586.28
2022-11-04T15:57:01.110Z,100589.16
2022-11-04T15:58:34.295Z,100582.16
2022-11-04T16:00:08.510Z,100594.91
2022-11-04T16:01:47.061Z,100595.25
2022-11-04T16:03:20.522Z,100592.69
2022-11-04T16:05:26.247Z,100596.38
2022-11-04T16:07:07.579Z,100598.28
2022-11-04T16:08:39.780Z,100598.44
2022-11-04T16:10:36.382Z,100605.50
2022-11-04T16:12:15.398Z,100603.78
2022-11-04T16:13:48.541Z,100607.28
2022-11-04T16:15:35.032Z,100614.34
2022-11-04T16:17:10.319Z,100617.78
2022-11-04T16:18:44.105Z,100612.28
2022-11-04T16:20:17.344Z,100626.00
2022-11-04T16:21:58.693Z,100618.75
2022-11-04T16:23:30.417Z,100621.44
2022-11-04T16:25:05.271Z,100613.59
2022-11-04T16:26:38.865Z,100628.34
2022-11-04T16:28:19.456Z,100629.94
2022-11-04T16:30:02.533Z,100630.38
2022-11-04T16:31:35.967Z,100627.22
2022-11-04T16:33:10.564Z,100632.00
2022-11-04T16:34:42.942Z,100631.34
2022-11-04T16:36:23.545Z,100636.56
2022-11-04T16:37:56.394Z,100642.63
2022-11-04T16:39:28.026Z,100638.22
2022-11-04T16:40:59.702Z,100647.06
2022-11-04T16:42:31.363Z,100647.78
2022-11-04T16:44:03.772Z,100646.19
2022-11-04T16:45:38.546Z,100657.59
2022-11-04T16:47:10.565Z,100644.56
2022-11-04T16:48:42.229Z,100646.63
2022-11-04T16:50:16.151Z,100653.81
2022-11-04T16:51:50.725Z,100651.44
2022-11-04T16:53:22.337Z,100655.06
2022-11-04T16:54:57.736Z,100660.41
2022-11-04T16:56:29.764Z,100665.56
2022-11-04T16:58:03.023Z,100660.28
2022-11-04T16:59:35.370Z,100662.72
2022-11-04T17:01:09.504Z,100661.06
2022-11-04T17:02:41.351Z,100663.66
2022-11-04T17:04:13.532Z,100675.00
2022-11-04T17:05:45.151Z,100669.84
2022-11-04T17:07:16.829Z,100669.00
2022-11-04T17:08:48.438Z,100668.31
2022-11-04T17:10:22.786Z,100671.28
2022-11-04T17:11:54.411Z,100666.91
2022-11-04T17:13:26.091Z,100677.50
2022-11-04T17:14:57.756Z,100671.63
2022-11-04T17:16:30.732Z,100670.84
2022-11-04T17:18:02.419Z,100672.69
2022-11-04T17:19:34.917Z,100684.03
2022-11-04T17:21:08.944Z,100690.00
2022-11-04T17:22:40.985Z,100691.53
2022-11-04T17:24:13.636Z,100681.97
2022-11-04T17:25:45.749Z,100693.56
2022-11-04T17:27:17.392Z,100691.16
2022-11-04T17:28:49.044Z,100692.19
2022-11-04T17:30:22.709Z,100698.41
2022-11-04T17:31:55.838Z,100695.63
2022-11-04T17:33:27.637Z,100702.69
2022-11-04T17:34:59.212Z,100712.25
2022-11-04T17:36:30.955Z,100710.91
2022-11-04T17:38:02.704Z,100714.13
2022-11-04T17:39:34.468Z,100713.69
2022-11-04T17:41:24.775Z,100718.44
2022-11-04T17:43:15.532Z,100717.47
2022-11-04T17:44:47.278Z,100720.31
2022-11-04T17:46:34.374Z,100708.94
2022-11-04T17:48:08.927Z,100717.63
2022-11-04T17:49:41.419Z,100719.47
2022-11-04T17:51:13.097Z,100731.72
2022-11-04T17:52:45.635Z,100732.56
2022-11-04T17:54:17.569Z,100731.97
2022-11-04T17:55:49.177Z,100740.78
2022-11-04T17:57:20.790Z,100735.38
2022-11-04T17:58:53.391Z,100737.03
2022-11-04T18:00:29.436Z,100746.53
2022-11-04T18:02:01.267Z,100742.03
2022-11-04T18:03:35.946Z,100742.78
2022-11-04T18:05:08.156Z,100754.31
2022-11-04T18:06:39.855Z,100750.81
2022-11-04T18:08:11.508Z,100752.53
2022-11-04T18:09:43.227Z,100752.78
2022-11-04T18:11:35.572Z,100755.53
2022-11-04T18:13:07.472Z,100753.94
2022-11-04T18:14:39.287Z,100757.44
2022-11-04T18:16:12.025Z,100754.06
2022-11-04T18:17:45.499Z,100750.50
2022-11-04T18:19:20.508Z,100754.69
2022-11-04T18:21:01.959Z,100758.31
2022-11-04T18:22:33.596Z,100751.44
2022-11-04T18:24:05.975Z,100753.22
2022-11-04T18:25:39.089Z,100757.38
2022-11-04T18:27:14.015Z,100759.09
2022-11-04T18:28:45.712Z,100760.81
2022-11-04T18:30:17.611Z,100758.31
2022-11-04T18:31:49.810Z,100764.69
2022-11-04T18:33:21.565Z,100766.53